Time;durP1;ratioP1;P1;durP2;ratioP2;P2;SDS_P1;SDS_P2;PMS_P1;PMS_P2;Temp;Humidity;BMP_temperature;BMP_pressure;BME280_temperature;BME280_humidity;BME280_pressure;Samples;Min_cycle;Max_cycle;Signal;HPM_P1;HPM_P2
2023/09/08 00:01:14;;;;;;;;;;;18.90;99.90;;;;;;5096007;28;19951;-72
2023/09/08 00:03:39;;;;;;;;;;;18.80;99.90;;;;;;5096062;28;19904;-72
2023/09/08 00:06:05;;;;;;;;;;;18.80;99.90;;;;;;5092623;28;19905;-72
2023/09/08 00:08:30;;;;;;;;;;;18.70;99.90;;;;;;5085181;28;19908;-72
2023/09/08 00:10:56;;;;;;;;;;;18.60;99.90;;;;;;5095242;28;19919;-72
2023/09/08 00:13:21;;;;;;;;;;;18.60;99.90;;;;;;5095945;28;19971;-72
2023/09/08 00:15:47;;;;;;;;;;;18.50;99.90;;;;;;5095992;28;19983;-72
2023/09/08 00:18:12;;;;;;;;;;;18.50;99.90;;;;;;5096152;28;20280;-72
2023/09/08 00:20:38;;;;;;;;;;;18.50;99.90;;;;;;5094114;28;19904;-72
2023/09/08 00:23:03;;;;;;;;;;;18.40;99.90;;;;;;5096142;28;19915;-72
2023/09/08 00:25:29;;;;;;;;;;;18.40;99.90;;;;;;5096125;28;20387;-72
2023/09/08 00:27:54;;;;;;;;;;;18.30;99.90;;;;;;5096003;28;19904;-72
2023/09/08 00:30:20;;;;;;;;;;;18.30;99.90;;;;;;5094252;28;19904;-72
2023/09/08 00:32:45;;;;;;;;;;;18.20;99.90;;;;;;5094796;28;19904;-72
2023/09/08 00:35:12;;;;;;;;;;;18.20;99.90;;;;;;5094676;28;19914;-72
2023/09/08 00:37:39;;;;;;;;;;;18.20;99.90;;;;;;5094767;28;19908;-72
2023/09/08 00:40:06;;;;;;;;;;;18.20;99.90;;;;;;5095590;28;19911;-72
2023/09/08 00:42:32;;;;;;;;;;;18.10;99.90;;;;;;5094008;28;19912;-72
2023/09/08 00:44:57;;;;;;;;;;;18.10;99.90;;;;;;5095012;28;20466;-73
2023/09/08 00:47:23;;;;;;;;;;;18.10;99.90;;;;;;5095874;28;19908;-73
2023/09/08 00:49:51;;;;;;;;;;;18.10;99.90;;;;;;5094469;28;19994;-73
2023/09/08 00:52:16;;;;;;;;;;;18.10;99.90;;;;;;5094537;28;19904;-73
2023/09/08 00:54:42;;;;;;;;;;;18.10;99.90;;;;;;5095508;28;20372;-72
2023/09/08 00:57:08;;;;;;;;;;;18.00;99.90;;;;;;5095628;28;19924;-72
2023/09/08 00:59:34;;;;;;;;;;;18.00;99.90;;;;;;5095443;28;19904;-73
2023/09/08 01:02:01;;;;;;;;;;;18.00;99.90;;;;;;5095685;28;19915;-73
2023/09/08 01:04:27;;;;;;;;;;;18.00;99.90;;;;;;5095602;28;20391;-73
2023/09/08 01:06:53;;;;;;;;;;;17.90;99.90;;;;;;5095642;28;19908;-72
2023/09/08 01:09:18;;;;;;;;;;;17.90;99.90;;;;;;5095307;28;19904;-73
2023/09/08 01:11:44;;;;;;;;;;;17.90;99.90;;;;;;5085541;28;19909;-73
2023/09/08 01:14:11;;;;;;;;;;;17.80;99.90;;;;;;5094517;28;19904;-72
2023/09/08 01:16:37;;;;;;;;;;;17.80;99.90;;;;;;5097534;28;19908;-73
2023/09/08 01:19:04;;;;;;;;;;;17.80;99.90;;;;;;5099431;28;19959;-73
2023/09/08 01:21:42;;;;;;;;;;;17.80;99.90;;;;;;5096980;28;19923;-72
2023/09/08 01:24:08;;;;;;;;;;;17.70;99.90;;;;;;5097823;28;19919;-73
2023/09/08 01:26:36;;;;;;;;;;;17.70;99.90;;;;;;5099371;28;20307;-72
2023/09/08 01:29:03;;;;;;;;;;;17.60;99.90;;;;;;5099088;28;19908;-72
2023/09/08 01:31:29;;;;;;;;;;;17.60;99.90;;;;;;5099176;28;20346;-72
2023/09/08 01:33:54;;;;;;;;;;;17.60;99.90;;;;;;5097949;28;19912;-72
2023/09/08 01:36:20;;;;;;;;;;;17.50;99.90;;;;;;5099194;28;19911;-72
2023/09/08 01:38:45;;;;;;;;;;;17.50;99.90;;;;;;5098647;28;19904;-72
2023/09/08 01:41:11;;;;;;;;;;;17.50;99.90;;;;;;5099039;28;19908;-72
2023/09/08 01:43:36;;;;;;;;;;;17.50;99.90;;;;;;5097743;28;19908;-72
2023/09/08 01:46:02;;;;;;;;;;;17.60;99.90;;;;;;5098831;28;19915;-72
2023/09/08 01:48:27;;;;;;;;;;;17.60;99.90;;;;;;5098353;28;19911;-72
2023/09/08 01:50:53;;;;;;;;;;;17.60;99.90;;;;;;5099298;28;19908;-72
2023/09/08 01:53:19;;;;;;;;;;;17.50;99.90;;;;;;5097168;28;20288;-72
2023/09/08 01:55:45;;;;;;;;;;;17.50;99.90;;;;;;5087246;28;19995;-72
2023/09/08 01:58:10;;;;;;;;;;;17.50;99.90;;;;;;5096476;28;19908;-72
2023/09/08 02:00:36;;;;;;;;;;;17.50;99.90;;;;;;5098756;28;19904;-72
2023/09/08 02:03:01;;;;;;;;;;;17.50;99.90;;;;;;5098544;28;19939;-73
2023/09/08 02:05:27;;;;;;;;;;;17.50;99.90;;;;;;5097532;28;20371;-73
2023/09/08 02:07:52;;;;;;;;;;;17.50;99.90;;;;;;5098450;28;19908;-73
2023/09/08 02:10:18;;;;;;;;;;;17.50;99.90;;;;;;5097396;28;19904;-73
2023/09/08 02:12:44;;;;;;;;;;;17.50;99.90;;;;;;5097625;28;20466;-73
2023/09/08 02:15:11;;;;;;;;;;;17.50;99.90;;;;;;5098577;28;19961;-73
2023/09/08 02:17:36;;;;;;;;;;;17.50;99.90;;;;;;5097195;28;20082;-73
2023/09/08 02:20:03;;;;;;;;;;;17.50;99.90;;;;;;5096301;28;19918;-73
2023/09/08 02:22:29;;;;;;;;;;;17.50;99.90;;;;;;5097202;28;19908;-73
2023/09/08 02:24:56;;;;;;;;;;;17.40;99.90;;;;;;5097097;28;19915;-73
2023/09/08 02:27:22;;;;;;;;;;;17.40;99.90;;;;;;5098205;28;19908;-73
2023/09/08 02:29:47;;;;;;;;;;;17.40;99.90;;;;;;5098349;28;20318;-73
2023/09/08 02:32:14;;;;;;;;;;;17.30;99.90;;;;;;5098042;28;19948;-73
2023/09/08 02:34:41;;;;;;;;;;;17.30;99.90;;;;;;5096962;28;19954;-73
2023/09/08 02:37:06;;;;;;;;;;;17.30;99.90;;;;;;5097970;28;20284;-73
2023/09/08 02:39:32;;;;;;;;;;;17.20;99.90;;;;;;5098323;28;19908;-73
2023/09/08 02:41:57;;;;;;;;;;;17.20;99.90;;;;;;5097318;28;20010;-73
2023/09/08 02:44:23;;;;;;;;;;;17.20;99.90;;;;;;5098235;28;19904;-73
2023/09/08 02:46:49;;;;;;;;;;;17.10;99.90;;;;;;5097516;28;20311;-73
2023/09/08 02:49:14;;;;;;;;;;;17.10;99.90;;;;;;5098087;28;19998;-73
2023/09/08 02:51:40;;;;;;;;;;;17.10;99.90;;;;;;5095933;28;19908;-73
2023/09/08 02:54:05;;;;;;;;;;;17.10;99.90;;;;;;5097040;28;19915;-73
2023/09/08 02:56:31;;;;;;;;;;;17.10;99.90;;;;;;5097757;28;19911;-73
2023/09/08 02:58:56;;;;;;;;;;;17.10;99.90;;;;;;5097578;28;19911;-73
2023/09/08 03:01:22;;;;;;;;;;;17.10;99.90;;;;;;5097272;28;20042;-73
2023/09/08 03:03:48;;;;;;;;;;;17.10;99.90;;;;;;5097615;28;20042;-73
2023/09/08 03:06:14;;;;;;;;;;;17.10;99.90;;;;;;5096688;28;19904;-73
2023/09/08 03:08:40;;;;;;;;;;;17.00;99.90;;;;;;5097412;28;20294;-73
2023/09/08 03:11:05;;;;;;;;;;;17.00;99.90;;;;;;5097044;28;19988;-73
2023/09/08 03:13:34;;;;;;;;;;;17.00;99.90;;;;;;5097067;28;19908;-73
2023/09/08 03:16:04;;;;;;;;;;;17.00;99.90;;;;;;5096664;28;19914;-73
2023/09/08 03:18:29;;;;;;;;;;;17.10;99.90;;;;;;5095939;28;20367;-73
2023/09/08 03:20:55;;;;;;;;;;;17.10;99.90;;;;;;5096604;28;20284;-73
2023/09/08 03:23:20;;;;;;;;;;;17.10;99.90;;;;;;5096691;28;19904;-73
2023/09/08 03:25:46;;;;;;;;;;;17.10;99.90;;;;;;5095194;28;19915;-73
2023/09/08 03:28:12;;;;;;;;;;;17.10;99.90;;;;;;5095795;28;19915;-73
2023/09/08 03:30:37;;;;;;;;;;;17.20;99.90;;;;;;5096676;28;20288;-74
2023/09/08 03:33:03;;;;;;;;;;;17.20;99.90;;;;;;5095663;28;19908;-73
2023/09/08 03:35:28;;;;;;;;;;;17.20;99.90;;;;;;5097152;28;19908;-74
2023/09/08 03:37:54;;;;;;;;;;;17.30;99.90;;;;;;5096907;28;19904;-73
2023/09/08 03:40:20;;;;;;;;;;;17.30;99.90;;;;;;5095506;28;19910;-74
2023/09/08 03:42:45;;;;;;;;;;;17.40;99.90;;;;;;5096697;28;19988;-74
2023/09/08 03:45:11;;;;;;;;;;;17.40;99.90;;;;;;5095289;28;19912;-74
2023/09/08 03:47:36;;;;;;;;;;;17.40;99.90;;;;;;5096927;28;20375;-73
2023/09/08 03:50:02;;;;;;;;;;;17.40;99.90;;;;;;5095213;28;19908;-74
2023/09/08 03:52:27;;;;;;;;;;;17.50;99.90;;;;;;5096477;28;19911;-73
2023/09/08 03:54:53;;;;;;;;;;;17.50;99.90;;;;;;5096060;28;19904;-73
2023/09/08 03:57:19;;;;;;;;;;;17.40;99.90;;;;;;5094520;28;19908;-73
2023/09/08 03:59:44;;;;;;;;;;;17.40;99.90;;;;;;5094942;28;19908;-72
2023/09/08 04:02:10;;;;;;;;;;;17.40;99.90;;;;;;5096497;28;20269;-73
2023/09/08 04:04:35;;;;;;;;;;;17.40;99.90;;;;;;5095992;28;19904;-73
2023/09/08 04:07:01;;;;;;;;;;;17.30;99.90;;;;;;5096505;28;19904;-73
2023/09/08 04:09:27;;;;;;;;;;;17.30;99.90;;;;;;5094920;28;19946;-72
2023/09/08 04:11:54;;;;;;;;;;;17.30;99.90;;;;;;5094484;28;19907;-73
2023/09/08 04:14:20;;;;;;;;;;;17.20;99.90;;;;;;5096253;28;19908;-73
2023/09/08 04:16:46;;;;;;;;;;;17.20;99.90;;;;;;5096307;28;20349;-73
2023/09/08 04:19:11;;;;;;;;;;;17.20;99.90;;;;;;5095660;28;19904;-73
2023/09/08 04:21:37;;;;;;;;;;;17.20;99.90;;;;;;5094567;28;19912;-73
2023/09/08 04:24:04;;;;;;;;;;;17.20;99.90;;;;;;5095408;28;19904;-73
2023/09/08 04:26:29;;;;;;;;;;;17.20;99.90;;;;;;5096075;28;19904;-72
2023/09/08 04:28:55;;;;;;;;;;;17.10;99.90;;;;;;5095318;28;19914;-73
2023/09/08 04:31:21;;;;;;;;;;;17.10;99.90;;;;;;5096178;28;19943;-73
2023/09/08 04:33:47;;;;;;;;;;;17.10;99.90;;;;;;5095979;28;20018;-73
2023/09/08 04:36:13;;;;;;;;;;;17.00;99.90;;;;;;5096112;28;19939;-72
2023/09/08 04:38:38;;;;;;;;;;;17.00;99.90;;;;;;5095821;28;19923;-73
2023/09/08 04:41:04;;;;;;;;;;;17.00;99.90;;;;;;5095485;28;19908;-73
2023/09/08 04:43:29;;;;;;;;;;;17.00;99.90;;;;;;5094408;28;19903;-73
2023/09/08 04:45:55;;;;;;;;;;;17.00;99.90;;;;;;5094401;28;19977;-73
2023/09/08 04:48:20;;;;;;;;;;;16.90;99.90;;;;;;5098674;28;19939;-73
2023/09/08 04:50:46;;;;;;;;;;;17.00;99.90;;;;;;5102747;28;20375;-73
2023/09/08 04:53:11;;;;;;;;;;;17.00;99.90;;;;;;5100818;28;19910;-73
2023/09/08 04:55:37;;;;;;;;;;;17.00;99.90;;;;;;5102640;28;19908;-73
2023/09/08 04:58:02;;;;;;;;;;;16.90;99.90;;;;;;5088792;28;19904;-73
2023/09/08 05:00:28;;;;;;;;;;;17.00;99.90;;;;;;5101837;28;19998;-73
2023/09/08 05:02:54;;;;;;;;;;;17.00;99.90;;;;;;5100880;28;19990;-73
2023/09/08 05:05:19;;;;;;;;;;;17.00;99.90;;;;;;5101395;28;19927;-73
2023/09/08 05:07:45;;;;;;;;;;;17.00;99.90;;;;;;5102472;28;19908;-73
2023/09/08 05:10:11;;;;;;;;;;;16.90;99.90;;;;;;5102534;28;19995;-73
2023/09/08 05:12:36;;;;;;;;;;;16.90;99.90;;;;;;5102098;28;19961;-73
2023/09/08 05:15:06;;;;;;;;;;;16.90;99.90;;;;;;5102520;28;20400;-73
2023/09/08 05:17:32;;;;;;;;;;;16.90;99.90;;;;;;5100860;28;19915;-73
2023/09/08 05:19:57;;;;;;;;;;;16.90;99.90;;;;;;5100892;28;19904;-73
2023/09/08 05:22:23;;;;;;;;;;;17.00;99.90;;;;;;5100503;28;19915;-73
2023/09/08 05:24:48;;;;;;;;;;;17.00;99.90;;;;;;5102347;28;20414;-73
2023/09/08 05:27:14;;;;;;;;;;;17.00;99.90;;;;;;5100527;28;19904;-73
2023/09/08 05:29:39;;;;;;;;;;;17.00;99.90;;;;;;5102148;28;19908;-73
2023/09/08 05:32:05;;;;;;;;;;;17.00;99.90;;;;;;5087079;28;19912;-73
2023/09/08 05:34:31;;;;;;;;;;;17.00;99.90;;;;;;5101574;28;19908;-73
2023/09/08 05:36:56;;;;;;;;;;;17.00;99.90;;;;;;5101929;28;20542;-73
2023/09/08 05:39:22;;;;;;;;;;;17.00;99.90;;;;;;5102352;28;19995;-73
2023/09/08 05:41:47;;;;;;;;;;;17.00;99.90;;;;;;5100184;28;20002;-74
2023/09/08 05:44:13;;;;;;;;;;;17.00;99.90;;;;;;5102059;28;19991;-73
2023/09/08 05:46:38;;;;;;;;;;;17.00;99.90;;;;;;5101325;28;20003;-73
2023/09/08 05:49:04;;;;;;;;;;;17.10;99.90;;;;;;5102281;28;19911;-73
2023/09/08 05:51:30;;;;;;;;;;;17.20;99.90;;;;;;5102042;28;19911;-73
2023/09/08 05:53:55;;;;;;;;;;;17.30;99.90;;;;;;5100159;28;19904;-73
2023/09/08 05:56:26;;;;;;;;;;;17.40;99.90;;;;;;5102015;28;20380;-73
2023/09/08 05:58:52;;;;;;;;;;;17.50;99.90;;;;;;5100354;28;19912;-73
2023/09/08 06:01:17;;;;;;;;;;;17.60;99.90;;;;;;5096069;28;19961;-73
2023/09/08 06:03:43;;;;;;;;;;;17.90;99.90;;;;;;5096936;28;19908;-73
2023/09/08 06:06:08;;;;;;;;;;;18.10;99.90;;;;;;5096843;28;19912;-73
2023/09/08 06:08:34;;;;;;;;;;;18.30;99.90;;;;;;5097303;28;20367;-73
2023/09/08 06:10:59;;;;;;;;;;;18.50;99.90;;;;;;5098044;28;20462;-73
2023/09/08 06:13:25;;;;;;;;;;;18.80;99.90;;;;;;5098683;28;20427;-73
2023/09/08 06:15:51;;;;;;;;;;;18.90;99.90;;;;;;5098544;28;19904;-74
2023/09/08 06:18:16;;;;;;;;;;;19.20;99.90;;;;;;5098363;28;19911;-74
2023/09/08 06:20:48;;;;;;;;;;;19.30;99.90;;;;;;5096568;28;20391;-74
2023/09/08 06:23:14;;;;;;;;;;;19.50;99.90;;;;;;5098405;28;20011;-73
2023/09/08 06:25:39;;;;;;;;;;;19.60;99.90;;;;;;5096496;28;19932;-75
2023/09/08 06:28:05;;;;;;;;;;;19.70;99.90;;;;;;5096382;28;19904;-73
2023/09/08 06:30:30;;;;;;;;;;;19.90;99.90;;;;;;5098181;28;19911;-74
2023/09/08 06:32:56;;;;;;;;;;;20.00;99.90;;;;;;5098412;28;19908;-73
2023/09/08 06:35:21;;;;;;;;;;;20.00;99.90;;;;;;5096529;28;19958;-74
2023/09/08 06:37:47;;;;;;;;;;;20.10;99.90;;;;;;5097595;28;19912;-72
2023/09/08 06:40:12;;;;;;;;;;;20.20;99.90;;;;;;5096377;28;19933;-74
2023/09/08 06:42:38;;;;;;;;;;;20.40;99.90;;;;;;5094339;28;20284;-75
2023/09/08 06:45:04;;;;;;;;;;;20.50;99.90;;;;;;5084759;28;19912;-74
2023/09/08 08:36:47;;;;;;;;;;;24.60;97.30;;;;;;5025547;28;19920;-76
2023/09/08 08:39:13;;;;;;;;;;;24.60;96.90;;;;;;5021714;28;20012;-81
2023/09/08 08:41:40;;;;;;;;;;;24.70;97.10;;;;;;5034032;28;19917;-77
2023/09/08 08:44:06;;;;;;;;;;;24.70;97.10;;;;;;5034881;28;19905;-78
2023/09/08 08:46:33;;;;;;;;;;;24.80;96.10;;;;;;5033438;28;19935;-80
2023/09/08 08:48:59;;;;;;;;;;;24.90;95.90;;;;;;5033068;28;19940;-77
2023/09/08 08:51:26;;;;;;;;;;;25.00;96.20;;;;;;5034609;28;19927;-77
2023/09/08 08:53:52;;;;;;;;;;;25.10;96.20;;;;;;5034690;28;19912;-77
2023/09/08 08:56:18;;;;;;;;;;;25.30;96.00;;;;;;5033482;28;19909;-77
2023/09/08 08:58:43;;;;;;;;;;;25.30;96.30;;;;;;5030939;28;19931;-77
2023/09/08 09:01:11;;;;;;;;;;;25.30;95.70;;;;;;5034941;28;19913;-78
2023/09/08 09:03:38;;;;;;;;;;;25.40;95.90;;;;;;5050336;28;19916;-79
2023/09/08 09:06:03;;;;;;;;;;;25.50;95.50;;;;;;5034931;28;20418;-80
2023/09/08 09:08:29;;;;;;;;;;;25.60;95.40;;;;;;5034727;28;19909;-79
2023/09/08 09:10:55;;;;;;;;;;;25.70;95.00;;;;;;5033254;28;19905;-78
2023/09/08 09:13:21;;;;;;;;;;;25.70;95.10;;;;;;5033420;28;19905;-78
2023/09/08 09:15:49;;;;;;;;;;;25.80;94.10;;;;;;5034641;28;19905;-77
2023/09/08 09:18:14;;;;;;;;;;;25.90;94.10;;;;;;5033127;28;19976;-78
2023/09/08 09:20:41;;;;;;;;;;;25.90;94.30;;;;;;5034220;28;20399;-78
2023/09/08 09:23:07;;;;;;;;;;;26.00;93.20;;;;;;5034877;28;19916;-78
2023/09/08 09:25:32;;;;;;;;;;;26.10;93.20;;;;;;5034743;28;21280;-77
2023/09/08 09:27:59;;;;;;;;;;;26.10;94.00;;;;;;5034687;28;19913;-76
2023/09/08 09:30:25;;;;;;;;;;;26.20;93.80;;;;;;5033664;28;19913;-77
2023/09/08 09:33:11;;;;;;;;;;;26.40;93.60;;;;;;5030924;28;19915;-79
2023/09/08 09:35:46;;;;;;;;;;;26.40;92.40;;;;;;5035424;28;19924;-77
2023/09/08 09:38:12;;;;;;;;;;;26.50;92.80;;;;;;5033781;28;19923;-76
2023/09/08 09:40:38;;;;;;;;;;;26.60;92.70;;;;;;5037481;28;19905;-78
2023/09/08 09:43:07;;;;;;;;;;;26.60;92.90;;;;;;5036240;28;20404;-79
2023/09/08 09:45:36;;;;;;;;;;;26.70;92.60;;;;;;5038098;28;20387;-77
2023/09/08 09:48:05;;;;;;;;;;;26.80;92.00;;;;;;5035550;28;19905;-79
2023/09/08 09:50:32;;;;;;;;;;;26.80;92.00;;;;;;5035705;28;19979;-79
2023/09/08 09:53:00;;;;;;;;;;;26.80;92.90;;;;;;5037803;28;19919;-78
2023/09/08 09:55:26;;;;;;;;;;;26.90;92.30;;;;;;5038007;28;19944;-81
2023/09/08 09:57:55;;;;;;;;;;;27.00;91.40;;;;;;5036513;28;20272;-79
2023/09/08 10:00:21;;;;;;;;;;;27.00;91.00;;;;;;5037152;28;19916;-77
2023/09/08 10:02:46;;;;;;;;;;;26.80;91.10;;;;;;5036398;28;19917;-77
2023/09/08 10:05:12;;;;;;;;;;;26.90;91.20;;;;;;5037412;28;19944;-77
2023/09/08 10:07:39;;;;;;;;;;;27.00;92.00;;;;;;5037973;28;19909;-77
2023/09/08 10:10:05;;;;;;;;;;;27.10;91.00;;;;;;5036850;28;19963;-77
2023/09/08 10:12:33;;;;;;;;;;;27.10;90.40;;;;;;5037873;28;19913;-78
2023/09/08 10:14:59;;;;;;;;;;;27.10;90.40;;;;;;5036168;28;19959;-80
2023/09/08 10:17:28;;;;;;;;;;;27.20;90.60;;;;;;5037403;28;19913;-77
2023/09/08 10:19:56;;;;;;;;;;;27.20;90.40;;;;;;5036139;28;19905;-77
2023/09/08 10:22:25;;;;;;;;;;;27.30;90.70;;;;;;5036034;28;19919;-78
2023/09/08 10:24:53;;;;;;;;;;;27.40;90.50;;;;;;5035753;28;19912;-79
2023/09/08 10:27:21;;;;;;;;;;;27.40;90.00;;;;;;5037252;28;19909;-76
2023/09/08 10:29:47;;;;;;;;;;;27.50;90.10;;;;;;5035337;28;19915;-77
2023/09/08 10:32:13;;;;;;;;;;;27.60;90.20;;;;;;5035607;28;20394;-78
2023/09/08 10:34:39;;;;;;;;;;;27.60;90.10;;;;;;5036074;28;19905;-77
2023/09/08 10:37:21;;;;;;;;;;;27.70;90.60;;;;;;5036307;28;20483;-78
2023/09/08 10:39:46;;;;;;;;;;;27.80;88.80;;;;;;5032756;28;20011;-77
2023/09/08 10:42:19;;;;;;;;;;;27.90;89.90;;;;;;5036836;28;19946;-76
2023/09/08 10:44:47;;;;;;;;;;;27.90;89.30;;;;;;5036577;28;19991;-77
2023/09/08 10:47:13;;;;;;;;;;;27.80;88.80;;;;;;5034846;28;19967;-76
2023/09/08 10:49:38;;;;;;;;;;;27.90;88.60;;;;;;5034417;28;19905;-77
2023/09/08 10:52:08;;;;;;;;;;;27.90;88.50;;;;;;5036910;28;19905;-76
2023/09/08 10:54:44;;;;;;;;;;;27.80;88.50;;;;;;5036751;28;19992;-76
2023/09/08 10:57:13;;;;;;;;;;;27.80;87.50;;;;;;5031643;28;19959;-76
2023/09/08 10:59:38;;;;;;;;;;;27.80;88.40;;;;;;5031780;28;19991;-77
2023/09/08 11:02:04;;;;;;;;;;;28.00;87.90;;;;;;5036590;28;19948;-76
2023/09/08 11:04:30;;;;;;;;;;;28.00;89.00;;;;;;5034924;28;19913;-75
2023/09/08 11:06:58;;;;;;;;;;;28.10;88.60;;;;;;5035242;28;19915;-76
2023/09/08 11:09:24;;;;;;;;;;;28.10;88.90;;;;;;5033344;28;19975;-76
2023/09/08 11:11:50;;;;;;;;;;;28.10;87.80;;;;;;5036630;28;19959;-79
2023/09/08 11:14:16;;;;;;;;;;;28.20;87.30;;;;;;5036501;28;19908;-76
2023/09/08 11:16:42;;;;;;;;;;;28.30;86.60;;;;;;5036765;28;19909;-77
2023/09/08 11:19:09;;;;;;;;;;;28.20;85.30;;;;;;5031310;28;19905;-78
2023/09/08 11:21:35;;;;;;;;;;;28.30;87.50;;;;;;5035874;28;19931;-77
2023/09/08 11:24:05;;;;;;;;;;;28.40;86.70;;;;;;5036197;28;19908;-77
2023/09/08 11:26:34;;;;;;;;;;;28.40;87.80;;;;;;5036261;28;20000;-78
2023/09/08 11:29:00;;;;;;;;;;;28.30;87.60;;;;;;5034960;28;19909;-78
2023/09/08 11:31:25;;;;;;;;;;;28.50;86.20;;;;;;5035873;28;19905;-80
2023/09/08 11:33:54;;;;;;;;;;;28.50;87.10;;;;;;5035959;28;19959;-79
2023/09/08 11:36:20;;;;;;;;;;;28.50;86.30;;;;;;5035623;28;19917;-79
2023/09/08 11:38:46;;;;;;;;;;;28.60;87.40;;;;;;5034397;28;19911;-78
2023/09/08 11:41:11;;;;;;;;;;;28.70;87.80;;;;;;5034848;28;19905;-79
2023/09/08 11:43:37;;;;;;;;;;;28.70;86.60;;;;;;5034191;28;19913;-77
2023/09/08 11:46:03;;;;;;;;;;;28.60;86.10;;;;;;5033224;28;21318;-77
2023/09/08 11:48:28;;;;;;;;;;;28.70;85.60;;;;;;5035433;28;20728;-78
2023/09/08 11:50:54;;;;;;;;;;;28.70;87.80;;;;;;5031267;28;19940;-78
2023/09/08 11:53:20;;;;;;;;;;;28.80;87.50;;;;;;5035597;28;19955;-79
2023/09/08 11:55:46;;;;;;;;;;;29.00;84.00;;;;;;5035610;28;19905;-77
2023/09/08 11:58:12;;;;;;;;;;;29.00;85.50;;;;;;5034909;28;19980;-77
2023/09/08 12:00:39;;;;;;;;;;;29.10;85.40;;;;;;5033235;28;19912;-77
2023/09/08 12:03:17;;;;;;;;;;;29.20;84.60;;;;;;5034067;28;20510;-78
2023/09/08 12:05:44;;;;;;;;;;;29.10;84.30;;;;;;5033672;28;20395;-77
2023/09/08 12:08:09;;;;;;;;;;;29.10;84.20;;;;;;5035738;28;19905;-79
2023/09/08 12:10:41;;;;;;;;;;;29.20;85.30;;;;;;5034639;28;19912;-77
2023/09/08 12:13:08;;;;;;;;;;;29.20;84.50;;;;;;5035589;28;19912;-76
2023/09/08 12:15:35;;;;;;;;;;;29.30;86.20;;;;;;5034003;28;20364;-77
2023/09/08 12:18:04;;;;;;;;;;;29.30;83.90;;;;;;5035057;28;19913;-77
2023/09/08 12:20:30;;;;;;;;;;;29.30;81.80;;;;;;5034400;28;20402;-77
2023/09/08 12:22:57;;;;;;;;;;;29.40;82.50;;;;;;5035644;28;19930;-76
2023/09/08 12:25:23;;;;;;;;;;;29.40;83.30;;;;;;5034094;28;19959;-75
2023/09/08 12:27:49;;;;;;;;;;;29.40;81.60;;;;;;5035326;28;19905;-77
2023/09/08 12:30:19;;;;;;;;;;;29.40;81.70;;;;;;5034316;28;20498;-76
2023/09/08 12:32:45;;;;;;;;;;;29.40;82.20;;;;;;5035126;28;19909;-79
2023/09/08 12:35:11;;;;;;;;;;;29.40;82.50;;;;;;5033508;28;19928;-77
2023/09/08 12:37:38;;;;;;;;;;;29.50;83.20;;;;;;5035118;28;19905;-77
2023/09/08 12:40:04;;;;;;;;;;;29.60;82.40;;;;;;5032887;28;19909;-77
2023/09/08 12:42:29;;;;;;;;;;;29.60;82.30;;;;;;5033872;28;19909;-76
2023/09/08 12:44:55;;;;;;;;;;;29.60;83.00;;;;;;5031720;28;19912;-76
2023/09/08 12:47:21;;;;;;;;;;;29.70;81.50;;;;;;5033735;28;19913;-75
2023/09/08 12:49:46;;;;;;;;;;;29.70;81.80;;;;;;5032497;28;19905;-77
2023/09/08 12:52:12;;;;;;;;;;;29.70;81.40;;;;;;5033569;28;19905;-75
2023/09/08 12:54:37;;;;;;;;;;;29.80;81.50;;;;;;5033294;28;20273;-77
2023/09/08 12:57:03;;;;;;;;;;;29.90;81.60;;;;;;5034674;28;19921;-76
2023/09/08 12:59:29;;;;;;;;;;;29.90;80.60;;;;;;5032411;28;20003;-77
2023/09/08 13:01:55;;;;;;;;;;;29.90;79.40;;;;;;5034687;28;19909;-78
2023/09/08 13:04:22;;;;;;;;;;;29.90;78.30;;;;;;5034523;28;19905;-77
2023/09/08 13:06:47;;;;;;;;;;;30.00;80.10;;;;;;5034575;28;19912;-76
2023/09/08 13:09:13;;;;;;;;;;;30.00;79.50;;;;;;5035146;28;19912;-78
2023/09/08 13:11:38;;;;;;;;;;;29.90;79.00;;;;;;5038761;28;19909;-75
2023/09/08 13:14:04;;;;;;;;;;;30.00;78.00;;;;;;5038528;28;19909;-76
2023/09/08 13:16:29;;;;;;;;;;;30.10;78.60;;;;;;5053954;28;20388;-78
2023/09/08 13:18:55;;;;;;;;;;;30.20;77.80;;;;;;5036186;28;19931;-77
2023/09/08 13:21:21;;;;;;;;;;;30.20;78.40;;;;;;5036985;28;19974;-79
2023/09/08 13:23:46;;;;;;;;;;;30.20;75.00;;;;;;5038533;28;20523;-77
2023/09/08 13:26:12;;;;;;;;;;;30.20;74.40;;;;;;5038853;28;20396;-77
2023/09/08 13:28:37;;;;;;;;;;;30.30;76.40;;;;;;5038121;28;20612;-77
2023/09/08 13:31:03;;;;;;;;;;;30.30;76.10;;;;;;5037922;28;19916;-77
2023/09/08 13:33:28;;;;;;;;;;;30.30;74.60;;;;;;5036830;28;19905;-77
2023/09/08 13:35:54;;;;;;;;;;;30.40;74.80;;;;;;5053058;28;19956;-76
2023/09/08 13:38:20;;;;;;;;;;;30.30;76.30;;;;;;5037695;28;19917;-77
2023/09/08 13:40:45;;;;;;;;;;;30.40;76.60;;;;;;5038169;28;19960;-77
2023/09/08 13:43:11;;;;;;;;;;;30.60;75.60;;;;;;5037593;28;19909;-76
2023/09/08 13:45:37;;;;;;;;;;;30.60;73.20;;;;;;5038211;28;19967;-76
2023/09/08 13:48:04;;;;;;;;;;;30.70;74.50;;;;;;5037668;28;19913;-75
2023/09/08 13:50:30;;;;;;;;;;;30.80;72.50;;;;;;5036928;28;19960;-77
2023/09/08 13:52:55;;;;;;;;;;;30.90;74.00;;;;;;5037476;28;20373;-78
2023/09/08 13:55:23;;;;;;;;;;;30.80;74.50;;;;;;5037886;28;19928;-77
2023/09/08 13:57:49;;;;;;;;;;;30.90;72.40;;;;;;5036375;28;20391;-78
2023/09/08 14:00:15;;;;;;;;;;;30.90;70.50;;;;;;5033489;28;19905;-77
2023/09/08 14:02:41;;;;;;;;;;;31.00;70.60;;;;;;5035991;28;19935;-78
2023/09/08 14:05:07;;;;;;;;;;;30.90;72.00;;;;;;5037362;28;19905;-76
2023/09/08 14:07:32;;;;;;;;;;;31.00;73.50;;;;;;5037327;28;20916;-77
2023/09/08 14:09:58;;;;;;;;;;;31.20;69.70;;;;;;5037342;28;19909;-75
2023/09/08 14:12:24;;;;;;;;;;;31.20;70.00;;;;;;5037321;28;20451;-78
2023/09/08 14:14:49;;;;;;;;;;;31.10;70.50;;;;;;5037453;28;19974;-76
2023/09/08 14:17:15;;;;;;;;;;;31.10;71.50;;;;;;5037265;28;20269;-75
2023/09/08 14:19:40;;;;;;;;;;;31.10;70.50;;;;;;5035969;28;19909;-77
2023/09/08 14:22:06;;;;;;;;;;;31.30;70.70;;;;;;5035900;28;19916;-77
2023/09/08 14:24:31;;;;;;;;;;;31.20;68.20;;;;;;5032366;28;19912;-78
2023/09/08 14:26:57;;;;;;;;;;;31.20;68.70;;;;;;5035727;28;19955;-77
2023/09/08 14:29:23;;;;;;;;;;;31.30;68.30;;;;;;5035311;28;19955;-77
2023/09/08 14:31:49;;;;;;;;;;;31.40;69.40;;;;;;5035887;28;19944;-77
2023/09/08 14:34:14;;;;;;;;;;;31.30;68.20;;;;;;5036798;28;20387;-78
2023/09/08 14:36:40;;;;;;;;;;;31.40;68.10;;;;;;5036769;28;20012;-78
2023/09/08 14:39:06;;;;;;;;;;;31.40;68.10;;;;;;5034444;28;19913;-78
2023/09/08 14:41:31;;;;;;;;;;;31.50;67.70;;;;;;5035506;28;19909;-77
2023/09/08 14:43:57;;;;;;;;;;;31.60;66.90;;;;;;5036447;28;19920;-77
2023/09/08 14:46:22;;;;;;;;;;;31.60;66.30;;;;;;5035456;28;20013;-77
2023/09/08 14:48:48;;;;;;;;;;;31.60;65.50;;;;;;5035040;28;19913;-77
2023/09/08 14:51:13;;;;;;;;;;;31.90;65.30;;;;;;5035836;28;19905;-79
2023/09/08 14:53:39;;;;;;;;;;;32.30;65.20;;;;;;5034155;28;19971;-79
2023/09/08 14:56:04;;;;;;;;;;;33.30;64.30;;;;;;5034975;28;19912;-77
2023/09/08 14:58:33;;;;;;;;;;;33.80;63.30;;;;;;5034732;28;19915;-79
2023/09/08 15:01:03;;;;;;;;;;;33.80;60.80;;;;;;5033958;28;20048;-77
2023/09/08 15:03:30;;;;;;;;;;;34.60;62.70;;;;;;5034926;28;19916;-79
2023/09/08 15:05:55;;;;;;;;;;;34.90;59.20;;;;;;5036237;28;19954;-77
2023/09/08 15:08:21;;;;;;;;;;;35.00;58.70;;;;;;5036270;28;19913;-77
2023/09/08 15:10:47;;;;;;;;;;;35.20;58.90;;;;;;5051571;28;19976;-78
2023/09/08 15:13:12;;;;;;;;;;;35.00;58.50;;;;;;5036445;28;19919;-77
2023/09/08 15:15:38;;;;;;;;;;;35.30;58.10;;;;;;5034905;28;19909;-77
2023/09/08 15:18:03;;;;;;;;;;;35.30;57.00;;;;;;5051701;28;20380;-77
2023/09/08 15:20:29;;;;;;;;;;;36.00;57.80;;;;;;5033128;28;19927;-78
2023/09/08 15:22:54;;;;;;;;;;;35.50;56.50;;;;;;5035105;28;20383;-77
2023/09/08 15:25:20;;;;;;;;;;;35.80;56.70;;;;;;5030315;28;19945;-77
2023/09/08 15:27:45;;;;;;;;;;;35.50;55.50;;;;;;5031139;28;19916;-78
2023/09/08 15:30:12;;;;;;;;;;;35.70;57.20;;;;;;5029178;28;19913;-78
2023/09/08 15:32:38;;;;;;;;;;;36.00;56.60;;;;;;5033615;28;19915;-77
2023/09/08 15:35:05;;;;;;;;;;;36.00;56.60;;;;;;5027978;28;19905;-78
2023/09/08 15:37:30;;;;;;;;;;;36.00;56.50;;;;;;5051636;28;19908;-78
2023/09/08 15:39:56;;;;;;;;;;;36.00;54.20;;;;;;5022662;28;19960;-78
2023/09/08 15:42:22;;;;;;;;;;;35.70;54.60;;;;;;5028224;28;19913;-77
2023/09/08 15:44:47;;;;;;;;;;;35.90;55.20;;;;;;5026592;28;19963;-77
2023/09/08 15:47:12;;;;;;;;;;;35.90;54.20;;;;;;5034614;28;20317;-78
2023/09/08 15:49:38;;;;;;;;;;;35.30;54.80;;;;;;5022445;28;20392;-78
2023/09/08 15:52:05;;;;;;;;;;;35.00;55.60;;;;;;5027782;28;19908;-77
2023/09/08 15:54:30;;;;;;;;;;;35.10;55.70;;;;;;5034086;28;19912;-77
2023/09/08 15:56:56;;;;;;;;;;;34.80;55.90;;;;;;5034133;28;20277;-78
2023/09/08 15:59:21;;;;;;;;;;;33.90;55.40;;;;;;5033009;28;19917;-78